sensor_id;sensor_type;location;lat;lon;timestamp;temperature;humidity
17639;DHT22;8938;53.546;9.954;2022-12-18T00:01:57;0.60;99.90
17639;DHT22;8938;53.546;9.954;2022-12-18T00:04:26;0.50;99.90
17639;DHT22;8938;53.546;9.954;2022-12-18T00:06:52;0.40;99.90
17639;DHT22;8938;53.546;9.954;2022-12-18T00:09:19;0.30;99.90
17639;DHT22;8938;53.546;9.954;2022-12-18T00:11:44;0.20;99.90
17639;DHT22;8938;53.546;9.954;2022-12-18T00:14:13;0.10;99.90
17639;DHT22;8938;53.546;9.954;2022-12-18T00:16:39;0.00;99.90
17639;DHT22;8938;53.546;9.954;2022-12-18T00:19:05;0.00;99.90
17639;DHT22;8938;53.546;9.954;2022-12-18T00:21:33;0.00;99.90
17639;DHT22;8938;53.546;9.954;2022-12-18T00:23:59;0.00;99.90
17639;DHT22;8938;53.546;9.954;2022-12-18T00:26:27;0.00;99.90
17639;DHT22;8938;53.546;9.954;2022-12-18T00:28:53;0.10;99.90
17639;DHT22;8938;53.546;9.954;2022-12-18T00:31:23;0.10;99.90
17639;DHT22;8938;53.546;9.954;2022-12-18T00:33:49;0.20;99.90
17639;DHT22;8938;53.546;9.954;2022-12-18T00:36:27;0.20;99.90
17639;DHT22;8938;53.546;9.954;2022-12-18T00:38:57;0.20;99.90
17639;DHT22;8938;53.546;9.954;2022-12-18T00:41:24;0.30;99.90
17639;DHT22;8938;53.546;9.954;2022-12-18T00:44:11;0.30;99.90
17639;DHT22;8938;53.546;9.954;2022-12-18T00:46:37;0.30;99.90
17639;DHT22;8938;53.546;9.954;2022-12-18T00:49:25;0.20;99.90
17639;DHT22;8938;53.546;9.954;2022-12-18T00:51:50;0.20;99.90
17639;DHT22;8938;53.546;9.954;2022-12-18T00:54:16;0.10;99.90
17639;DHT22;8938;53.546;9.954;2022-12-18T00:56:42;0.00;99.90
17639;DHT22;8938;53.546;9.954;2022-12-18T00:59:08;0.00;99.90
17639;DHT22;8938;53.546;9.954;2022-12-18T01:01:34;0.00;99.90
17639;DHT22;8938;53.546;9.954;2022-12-18T01:04:01;0.10;99.90
17639;DHT22;8938;53.546;9.954;2022-12-18T01:06:26;0.20;99.90
17639;DHT22;8938;53.546;9.954;2022-12-18T01:08:52;0.20;99.90
17639;DHT22;8938;53.546;9.954;2022-12-18T01:11:19;0.20;99.90
17639;DHT22;8938;53.546;9.954;2022-12-18T01:13:45;0.20;99.90
17639;DHT22;8938;53.546;9.954;2022-12-18T01:16:12;0.10;99.90
17639;DHT22;8938;53.546;9.954;2022-12-18T01:18:38;0.00;99.90
17639;DHT22;8938;53.546;9.954;2022-12-18T01:21:09;-0.10;99.90
17639;DHT22;8938;53.546;9.954;2022-12-18T01:23:35;-0.10;99.90
17639;DHT22;8938;53.546;9.954;2022-12-18T01:26:05;-0.10;99.90
17639;DHT22;8938;53.546;9.954;2022-12-18T01:28:31;0.00;99.90
17639;DHT22;8938;53.546;9.954;2022-12-18T01:30:56;0.00;99.90
17639;DHT22;8938;53.546;9.954;2022-12-18T01:33:25;0.10;99.90
17639;DHT22;8938;53.546;9.954;2022-12-18T01:35:50;0.10;99.90
17639;DHT22;8938;53.546;9.954;2022-12-18T01:38:16;0.10;99.90
17639;DHT22;8938;53.546;9.954;2022-12-18T01:40:41;0.10;99.90
17639;DHT22;8938;53.546;9.954;2022-12-18T01:43:09;0.20;99.90
17639;DHT22;8938;53.546;9.954;2022-12-18T01:45:34;0.20;99.90
17639;DHT22;8938;53.546;9.954;2022-12-18T01:48:05;0.20;99.90
17639;DHT22;8938;53.546;9.954;2022-12-18T01:50:35;0.30;99.90
17639;DHT22;8938;53.546;9.954;2022-12-18T01:53:13;0.30;99.90
17639;DHT22;8938;53.546;9.954;2022-12-18T01:55:44;0.30;99.90
17639;DHT22;8938;53.546;9.954;2022-12-18T01:58:11;0.20;99.90
17639;DHT22;8938;53.546;9.954;2022-12-18T02:00:37;0.20;99.90
17639;DHT22;8938;53.546;9.954;2022-12-18T02:03:03;0.10;99.90
17639;DHT22;8938;53.546;9.954;2022-12-18T02:05:50;0.10;99.90
17639;DHT22;8938;53.546;9.954;2022-12-18T02:08:42;0.10;99.90
17639;DHT22;8938;53.546;9.954;2022-12-18T02:11:43;0.20;99.90
17639;DHT22;8938;53.546;9.954;2022-12-18T02:14:34;0.20;99.90
17639;DHT22;8938;53.546;9.954;2022-12-18T02:17:35;0.10;99.90
17639;DHT22;8938;53.546;9.954;2022-12-18T02:20:09;0.00;99.90
17639;DHT22;8938;53.546;9.954;2022-12-18T02:25:53;0.10;99.90
17639;DHT22;8938;53.546;9.954;2022-12-18T02:28:23;0.10;99.90
17639;DHT22;8938;53.546;9.954;2022-12-18T02:30:52;0.10;99.90
17639;DHT22;8938;53.546;9.954;2022-12-18T02:33:19;0.10;99.90
17639;DHT22;8938;53.546;9.954;2022-12-18T02:35:46;0.10;99.90
17639;DHT22;8938;53.546;9.954;2022-12-18T02:38:13;0.10;99.90
17639;DHT22;8938;53.546;9.954;2022-12-18T02:40:40;0.10;99.90
17639;DHT22;8938;53.546;9.954;2022-12-18T02:43:10;0.20;99.90
17639;DHT22;8938;53.546;9.954;2022-12-18T02:45:35;0.20;99.90
17639;DHT22;8938;53.546;9.954;2022-12-18T02:48:02;0.10;99.90
17639;DHT22;8938;53.546;9.954;2022-12-18T02:50:36;0.10;99.90
17639;DHT22;8938;53.546;9.954;2022-12-18T02:53:15;0.00;99.90
17639;DHT22;8938;53.546;9.954;2022-12-18T02:59:02;-0.20;99.90
17639;DHT22;8938;53.546;9.954;2022-12-18T03:04:03;-0.40;99.90
17639;DHT22;8938;53.546;9.954;2022-12-18T03:06:41;-0.40;99.90
17639;DHT22;8938;53.546;9.954;2022-12-18T03:09:12;-0.40;99.90
17639;DHT22;8938;53.546;9.954;2022-12-18T03:11:42;-0.50;99.90
17639;DHT22;8938;53.546;9.954;2022-12-18T03:14:32;-0.50;99.90
17639;DHT22;8938;53.546;9.954;2022-12-18T03:17:02;-0.60;99.90
17639;DHT22;8938;53.546;9.954;2022-12-18T03:19:31;-0.60;99.90
17639;DHT22;8938;53.546;9.954;2022-12-18T03:21:59;-0.70;99.90
17639;DHT22;8938;53.546;9.954;2022-12-18T03:24:28;-0.70;99.90
17639;DHT22;8938;53.546;9.954;2022-12-18T03:27:00;-0.70;99.90
17639;DHT22;8938;53.546;9.954;2022-12-18T03:29:38;-0.60;99.90
17639;DHT22;8938;53.546;9.954;2022-12-18T03:32:15;-0.50;99.90
17639;DHT22;8938;53.546;9.954;2022-12-18T03:34:43;-0.40;99.90
17639;DHT22;8938;53.546;9.954;2022-12-18T03:37:12;-0.40;99.90
17639;DHT22;8938;53.546;9.954;2022-12-18T03:39:37;-0.40;99.90
17639;DHT22;8938;53.546;9.954;2022-12-18T03:47:53;-0.30;99.90
17639;DHT22;8938;53.546;9.954;2022-12-18T03:50:46;-0.40;99.90
17639;DHT22;8938;53.546;9.954;2022-12-18T03:53:22;-0.50;99.90
17639;DHT22;8938;53.546;9.954;2022-12-18T03:55:51;-0.60;99.90
17639;DHT22;8938;53.546;9.954;2022-12-18T03:58:20;-0.70;99.90
17639;DHT22;8938;53.546;9.954;2022-12-18T04:00:51;-0.60;99.90
17639;DHT22;8938;53.546;9.954;2022-12-18T04:03:19;-0.50;99.90
17639;DHT22;8938;53.546;9.954;2022-12-18T04:05:48;-0.50;99.90
17639;DHT22;8938;53.546;9.954;2022-12-18T04:08:16;-0.50;99.90
17639;DHT22;8938;53.546;9.954;2022-12-18T04:10:41;-0.50;99.90
17639;DHT22;8938;53.546;9.954;2022-12-18T04:13:07;-0.40;99.90
17639;DHT22;8938;53.546;9.954;2022-12-18T04:15:34;-0.40;99.90
17639;DHT22;8938;53.546;9.954;2022-12-18T04:18:01;-0.40;99.90
17639;DHT22;8938;53.546;9.954;2022-12-18T04:20:27;-0.40;99.90
17639;DHT22;8938;53.546;9.954;2022-12-18T04:22:52;-0.40;99.90
17639;DHT22;8938;53.546;9.954;2022-12-18T04:25:18;-0.40;99.90
17639;DHT22;8938;53.546;9.954;2022-12-18T04:27:43;-0.30;99.90
17639;DHT22;8938;53.546;9.954;2022-12-18T04:30:12;-0.30;99.90
17639;DHT22;8938;53.546;9.954;2022-12-18T04:32:37;-0.30;99.90
17639;DHT22;8938;53.546;9.954;2022-12-18T04:35:03;-0.30;99.90
17639;DHT22;8938;53.546;9.954;2022-12-18T04:37:31;-0.30;99.90
17639;DHT22;8938;53.546;9.954;2022-12-18T04:39:57;-0.40;99.90
17639;DHT22;8938;53.546;9.954;2022-12-18T04:42:22;-0.40;99.90
17639;DHT22;8938;53.546;9.954;2022-12-18T04:44:48;-0.40;99.90
17639;DHT22;8938;53.546;9.954;2022-12-18T04:47:14;-0.40;99.90
17639;DHT22;8938;53.546;9.954;2022-12-18T04:49:39;-0.40;99.90
17639;DHT22;8938;53.546;9.954;2022-12-18T04:52:08;-0.40;99.90
17639;DHT22;8938;53.546;9.954;2022-12-18T04:54:33;-0.60;99.90
17639;DHT22;8938;53.546;9.954;2022-12-18T04:56:59;-0.80;99.90
17639;DHT22;8938;53.546;9.954;2022-12-18T04:59:24;-0.90;99.90
17639;DHT22;8938;53.546;9.954;2022-12-18T05:01:50;-1.00;99.90
17639;DHT22;8938;53.546;9.954;2022-12-18T05:04:15;-0.90;99.90
17639;DHT22;8938;53.546;9.954;2022-12-18T05:06:41;-1.00;99.90
17639;DHT22;8938;53.546;9.954;2022-12-18T05:09:06;-1.00;99.90
17639;DHT22;8938;53.546;9.954;2022-12-18T05:11:32;-1.00;99.90
17639;DHT22;8938;53.546;9.954;2022-12-18T05:13:57;-1.00;99.90
17639;DHT22;8938;53.546;9.954;2022-12-18T05:16:24;-1.10;99.90
17639;DHT22;8938;53.546;9.954;2022-12-18T05:18:50;-1.10;99.90
17639;DHT22;8938;53.546;9.954;2022-12-18T05:21:15;-1.20;99.90
17639;DHT22;8938;53.546;9.954;2022-12-18T05:23:41;-1.20;99.90
17639;DHT22;8938;53.546;9.954;2022-12-18T05:26:07;-1.20;99.90
17639;DHT22;8938;53.546;9.954;2022-12-18T05:28:37;-1.30;99.90
17639;DHT22;8938;53.546;9.954;2022-12-18T05:31:04;-1.30;99.90
17639;DHT22;8938;53.546;9.954;2022-12-18T05:33:32;-1.40;99.90
17639;DHT22;8938;53.546;9.954;2022-12-18T05:36:03;-1.40;99.90
17639;DHT22;8938;53.546;9.954;2022-12-18T05:38:30;-1.40;99.90
17639;DHT22;8938;53.546;9.954;2022-12-18T05:40:57;-1.40;99.90
17639;DHT22;8938;53.546;9.954;2022-12-18T05:43:23;-1.30;99.90
17639;DHT22;8938;53.546;9.954;2022-12-18T05:45:50;-1.30;99.90
17639;DHT22;8938;53.546;9.954;2022-12-18T05:48:16;-1.20;99.90
17639;DHT22;8938;53.546;9.954;2022-12-18T05:50:43;-1.20;99.90
17639;DHT22;8938;53.546;9.954;2022-12-18T05:53:14;-1.20;99.90
17639;DHT22;8938;53.546;9.954;2022-12-18T05:55:41;-1.20;99.90
17639;DHT22;8938;53.546;9.954;2022-12-18T05:58:08;-1.20;99.90
17639;DHT22;8938;53.546;9.954;2022-12-18T06:00:37;-1.10;99.90
17639;DHT22;8938;53.546;9.954;2022-12-18T06:03:05;-1.20;99.90
17639;DHT22;8938;53.546;9.954;2022-12-18T06:05:38;-1.20;99.90
17639;DHT22;8938;53.546;9.954;2022-12-18T06:08:04;-1.20;99.90
17639;DHT22;8938;53.546;9.954;2022-12-18T06:10:30;-1.20;99.90
17639;DHT22;8938;53.546;9.954;2022-12-18T06:12:55;-1.30;99.90
17639;DHT22;8938;53.546;9.954;2022-12-18T06:15:21;-1.30;99.90
17639;DHT22;8938;53.546;9.954;2022-12-18T06:17:46;-1.40;99.90
17639;DHT22;8938;53.546;9.954;2022-12-18T06:20:12;-1.40;99.90
17639;DHT22;8938;53.546;9.954;2022-12-18T06:22:37;-1.40;99.90
17639;DHT22;8938;53.546;9.954;2022-12-18T06:25:03;-1.40;99.90
17639;DHT22;8938;53.546;9.954;2022-12-18T06:27:29;-1.30;99.90
17639;DHT22;8938;53.546;9.954;2022-12-18T06:30:09;-1.30;99.90
17639;DHT22;8938;53.546;9.954;2022-12-18T06:32:35;-1.40;99.90
17639;DHT22;8938;53.546;9.954;2022-12-18T06:35:01;-1.50;99.90
17639;DHT22;8938;53.546;9.954;2022-12-18T06:37:26;-1.50;99.90
17639;DHT22;8938;53.546;9.954;2022-12-18T06:39:53;-1.50;99.90
17639;DHT22;8938;53.546;9.954;2022-12-18T06:42:21;-1.50;99.90
17639;DHT22;8938;53.546;9.954;2022-12-18T06:44:47;-1.60;99.90
17639;DHT22;8938;53.546;9.954;2022-12-18T06:47:12;-1.50;99.90
17639;DHT22;8938;53.546;9.954;2022-12-18T06:49:38;-1.60;99.90
17639;DHT22;8938;53.546;9.954;2022-12-18T06:52:03;-1.60;99.90
17639;DHT22;8938;53.546;9.954;2022-12-18T06:54:29;-1.60;99.90
17639;DHT22;8938;53.546;9.954;2022-12-18T06:56:57;-1.60;99.90
17639;DHT22;8938;53.546;9.954;2022-12-18T06:59:23;-1.40;99.90
17639;DHT22;8938;53.546;9.954;2022-12-18T07:01:48;-1.30;99.90
17639;DHT22;8938;53.546;9.954;2022-12-18T07:04:14;-1.30;99.90
17639;DHT22;8938;53.546;9.954;2022-12-18T07:06:39;-1.40;99.90
17639;DHT22;8938;53.546;9.954;2022-12-18T07:09:05;-1.50;99.90
17639;DHT22;8938;53.546;9.954;2022-12-18T07:11:32;-1.60;99.90
17639;DHT22;8938;53.546;9.954;2022-12-18T07:14:01;-1.60;99.90
17639;DHT22;8938;53.546;9.954;2022-12-18T07:16:27;-1.60;99.90
17639;DHT22;8938;53.546;9.954;2022-12-18T07:18:56;-1.50;99.90
17639;DHT22;8938;53.546;9.954;2022-12-18T07:21:22;-1.60;99.90
17639;DHT22;8938;53.546;9.954;2022-12-18T07:23:48;-1.60;99.90
17639;DHT22;8938;53.546;9.954;2022-12-18T07:26:16;-1.60;99.90
17639;DHT22;8938;53.546;9.954;2022-12-18T07:28:42;-1.60;99.90
17639;DHT22;8938;53.546;9.954;2022-12-18T07:31:11;-1.50;99.90
17639;DHT22;8938;53.546;9.954;2022-12-18T07:33:37;-1.40;99.90
17639;DHT22;8938;53.546;9.954;2022-12-18T07:36:04;-1.30;99.90
17639;DHT22;8938;53.546;9.954;2022-12-18T07:38:31;-1.20;99.90
17639;DHT22;8938;53.546;9.954;2022-12-18T07:41:04;-1.10;99.90
17639;DHT22;8938;53.546;9.954;2022-12-18T07:43:30;-1.10;99.90
17639;DHT22;8938;53.546;9.954;2022-12-18T07:45:55;-1.10;99.90
17639;DHT22;8938;53.546;9.954;2022-12-18T07:48:21;-1.00;99.90
17639;DHT22;8938;53.546;9.954;2022-12-18T07:50:46;-1.10;99.90
17639;DHT22;8938;53.546;9.954;2022-12-18T07:53:13;-1.00;99.90
17639;DHT22;8938;53.546;9.954;2022-12-18T07:55:40;-1.00;99.90
17639;DHT22;8938;53.546;9.954;2022-12-18T07:58:06;-1.00;99.90
17639;DHT22;8938;53.546;9.954;2022-12-18T08:00:32;-0.90;99.90
17639;DHT22;8938;53.546;9.954;2022-12-18T08:02:57;-0.90;99.90
17639;DHT22;8938;53.546;9.954;2022-12-18T08:05:23;-0.90;99.90
17639;DHT22;8938;53.546;9.954;2022-12-18T08:07:49;-0.80;99.90
17639;DHT22;8938;53.546;9.954;2022-12-18T08:10:15;-0.70;99.90
17639;DHT22;8938;53.546;9.954;2022-12-18T08:12:40;-0.70;99.90
17639;DHT22;8938;53.546;9.954;2022-12-18T08:15:06;-0.60;99.90
17639;DHT22;8938;53.546;9.954;2022-12-18T08:17:32;-0.70;99.90
17639;DHT22;8938;53.546;9.954;2022-12-18T08:19:58;-0.90;99.90
17639;DHT22;8938;53.546;9.954;2022-12-18T08:22:23;-1.00;99.90
17639;DHT22;8938;53.546;9.954;2022-12-18T08:24:49;-1.00;99.90
17639;DHT22;8938;53.546;9.954;2022-12-18T08:27:14;-1.00;99.90
17639;DHT22;8938;53.546;9.954;2022-12-18T08:29:40;-1.00;99.90
17639;DHT22;8938;53.546;9.954;2022-12-18T08:32:05;-1.00;99.90
17639;DHT22;8938;53.546;9.954;2022-12-18T08:34:31;-1.10;99.90
17639;DHT22;8938;53.546;9.954;2022-12-18T08:36:56;-1.10;99.90
17639;DHT22;8938;53.546;9.954;2022-12-18T08:39:22;-1.20;99.90
17639;DHT22;8938;53.546;9.954;2022-12-18T08:41:47;-1.20;99.90
17639;DHT22;8938;53.546;9.954;2022-12-18T08:44:33;-1.20;99.90
17639;DHT22;8938;53.546;9.954;2022-12-18T08:47:05;-1.20;99.90
17639;DHT22;8938;53.546;9.954;2022-12-18T08:49:34;-1.10;99.90
17639;DHT22;8938;53.546;9.954;2022-12-18T08:52:00;-1.10;99.90
17639;DHT22;8938;53.546;9.954;2022-12-18T08:54:27;-1.00;99.90
17639;DHT22;8938;53.546;9.954;2022-12-18T08:56:53;-1.00;99.90
17639;DHT22;8938;53.546;9.954;2022-12-18T08:59:26;-0.90;99.90
17639;DHT22;8938;53.546;9.954;2022-12-18T09:01:53;-0.90;99.90
17639;DHT22;8938;53.546;9.954;2022-12-18T09:04:19;-0.90;99.90
17639;DHT22;8938;53.546;9.954;2022-12-18T09:06:44;-0.80;99.90
17639;DHT22;8938;53.546;9.954;2022-12-18T09:09:10;-0.70;99.90
17639;DHT22;8938;53.546;9.954;2022-12-18T09:11:37;-0.60;99.90
17639;DHT22;8938;53.546;9.954;2022-12-18T09:14:03;-0.50;99.90
17639;DHT22;8938;53.546;9.954;2022-12-18T09:16:29;-0.40;99.90
17639;DHT22;8938;53.546;9.954;2022-12-18T09:18:55;-0.30;99.90
17639;DHT22;8938;53.546;9.954;2022-12-18T09:21:26;-0.20;99.90
17639;DHT22;8938;53.546;9.954;2022-12-18T09:23:53;-0.20;99.90
17639;DHT22;8938;53.546;9.954;2022-12-18T09:26:20;-0.10;99.90
17639;DHT22;8938;53.546;9.954;2022-12-18T09:28:46;-0.20;99.90
17639;DHT22;8938;53.546;9.954;2022-12-18T09:31:13;-0.20;99.90
17639;DHT22;8938;53.546;9.954;2022-12-18T09:33:38;-0.30;99.90
17639;DHT22;8938;53.546;9.954;2022-12-18T09:36:07;-0.30;99.90
17639;DHT22;8938;53.546;9.954;2022-12-18T09:38:33;-0.20;99.90
17639;DHT22;8938;53.546;9.954;2022-12-18T09:42:01;-0.20;99.90
17639;DHT22;8938;53.546;9.954;2022-12-18T09:44:03;-0.10;99.90
17639;DHT22;8938;53.546;9.954;2022-12-18T09:46:33;0.10;99.90
17639;DHT22;8938;53.546;9.954;2022-12-18T09:49:03;0.20;99.90
17639;DHT22;8938;53.546;9.954;2022-12-18T09:51:36;0.30;99.90
17639;DHT22;8938;53.546;9.954;2022-12-18T09:54:11;0.50;99.90
17639;DHT22;8938;53.546;9.954;2022-12-18T09:56:41;0.60;99.90
17639;DHT22;8938;53.546;9.954;2022-12-18T09:59:20;0.80;99.90
17639;DHT22;8938;53.546;9.954;2022-12-18T10:01:46;0.90;99.90
